createdAt,value
2023-05-14T00:00:36.024Z,33.6923
2023-05-14T00:01:37.762Z,30.1538
2023-05-14T00:02:39.547Z,33.9231
2023-05-14T00:03:41.451Z,35.3846
2023-05-14T00:04:42.980Z,33.9231
2023-05-14T00:05:44.704Z,30.3846
2023-05-14T00:06:46.459Z,34.3846
2023-05-14T00:07:48.157Z,37.2308
2023-05-14T00:08:49.906Z,27.6923
2023-05-14T00:09:51.659Z,28.7692
2023-05-14T00:10:53.385Z,33.5385
2023-05-14T00:11:55.097Z,34.2308
2023-05-14T00:12:56.835Z,23.6923
2023-05-14T00:13:58.567Z,29.4615
2023-05-14T00:15:00.321Z,27.6154
2023-05-14T00:16:02.064Z,30.3846
2023-05-14T00:17:03.763Z,32.6154
2023-05-14T00:18:05.532Z,30.1538
2023-05-14T00:19:07.378Z,34.4615
2023-05-14T00:20:09.077Z,28.0769
2023-05-14T00:21:10.807Z,34.1538
2023-05-14T00:22:12.519Z,30.8462
2023-05-14T00:23:14.253Z,29.9231
2023-05-14T00:24:15.989Z,30.7692
2023-05-14T00:25:17.715Z,30.3846
2023-05-14T00:26:19.456Z,32.9231
2023-05-14T00:27:21.190Z,25.5385
2023-05-14T00:28:22.933Z,33.0000
2023-05-14T00:29:24.673Z,30.7692
2023-05-14T00:30:26.407Z,26.9231
2023-05-14T00:31:28.135Z,33.0000
2023-05-14T00:32:29.911Z,29.1538
2023-05-14T00:33:31.605Z,26.2308
2023-05-14T00:34:33.333Z,21.8462
2023-05-14T00:35:35.077Z,25.0000
2023-05-14T00:36:36.787Z,27.2308
2023-05-14T00:37:38.512Z,25.1538
2023-05-14T00:38:40.251Z,24.0769
2023-05-14T00:39:42.004Z,25.0769
2023-05-14T00:40:43.738Z,29.2308
2023-05-14T00:41:45.464Z,29.0000
2023-05-14T00:42:47.190Z,23.3077
2023-05-14T00:43:48.913Z,27.6154
2023-05-14T00:44:50.665Z,32.8462
2023-05-14T00:45:52.402Z,28.0769
2023-05-14T00:46:54.198Z,25.6154
2023-05-14T00:47:55.849Z,24.0769
2023-05-14T00:48:57.570Z,27.4615
2023-05-14T00:49:59.318Z,27.0000
2023-05-14T00:51:01.058Z,30.6154
2023-05-14T00:52:02.784Z,36.3077
2023-05-14T00:53:04.497Z,30.0769
2023-05-14T00:54:06.244Z,27.3846
2023-05-14T00:55:07.985Z,24.3846
2023-05-14T00:56:09.743Z,27.0769
2023-05-14T00:57:11.466Z,24.5385
2023-05-14T00:58:13.169Z,27.3077
2023-05-14T00:59:14.891Z,25.7692
2023-05-14T01:00:16.691Z,28.0000
2023-05-14T01:01:18.414Z,25.0000
2023-05-14T01:02:20.142Z,26.3077
2023-05-14T01:03:21.872Z,26.3077
2023-05-14T01:04:23.547Z,30.1538
2023-05-14T01:05:25.276Z,28.1538
2023-05-14T01:06:27.039Z,33.9231
2023-05-14T01:07:28.765Z,29.9231
2023-05-14T01:08:30.491Z,27.3077
2023-05-14T01:09:32.207Z,28.2308
2023-05-14T01:10:33.943Z,27.3077
2023-05-14T01:11:35.685Z,32.3077
2023-05-14T01:12:37.427Z,26.6154
2023-05-14T01:13:39.159Z,28.9231
2023-05-14T01:14:40.873Z,24.5385
2023-05-14T01:15:42.602Z,20.0769
2023-05-14T01:16:44.361Z,26.0769
2023-05-14T01:17:46.118Z,32.3846
2023-05-14T01:18:47.878Z,26.1538
2023-05-14T01:19:49.531Z,25.4615
2023-05-14T01:20:51.267Z,23.4615
2023-05-14T01:21:53.012Z,21.9231
2023-05-14T01:22:54.772Z,28.0000
2023-05-14T01:23:56.488Z,22.3077
2023-05-14T01:24:58.227Z,25.6154
2023-05-14T01:25:59.937Z,22.2308
2023-05-14T01:27:01.684Z,28.9231
2023-05-14T01:28:03.397Z,24.1538
2023-05-14T01:29:05.164Z,24.5385
2023-05-14T01:30:06.886Z,26.2308
2023-05-14T01:31:08.605Z,29.9231
2023-05-14T01:32:10.433Z,22.6154
2023-05-14T01:33:12.070Z,20.6923
2023-05-14T01:34:13.820Z,18.5385
2023-05-14T01:35:15.563Z,22.8462
2023-05-14T01:36:17.265Z,17.6154
2023-05-14T01:37:19.008Z,21.2308
2023-05-14T01:38:20.755Z,19.8462
2023-05-14T01:39:22.465Z,16.6923
2023-05-14T01:40:24.395Z,22.0769
2023-05-14T01:41:25.926Z,33.2308
2023-05-14T01:42:27.680Z,20.5385
2023-05-14T01:43:29.510Z,19.5385
2023-05-14T01:44:31.136Z,25.4615
2023-05-14T01:45:32.845Z,14.2308
2023-05-14T01:46:34.579Z,19.5385
2023-05-14T01:47:36.364Z,19.0000
2023-05-14T01:48:38.059Z,23.5385
2023-05-14T01:49:39.786Z,22.9231
2023-05-14T01:50:41.502Z,14.4615
2023-05-14T01:51:43.242Z,15.1538
2023-05-14T01:52:45.004Z,17.8462
2023-05-14T01:53:46.692Z,17.3077
2023-05-14T01:54:48.435Z,15.4615
2023-05-14T01:55:50.160Z,17.1538
2023-05-14T01:56:51.907Z,18.1538
2023-05-14T01:57:53.643Z,15.5385
2023-05-14T01:58:55.369Z,11.0000
2023-05-14T01:59:57.080Z,14.0769
2023-05-14T02:00:58.888Z,12.0000
2023-05-14T02:02:00.742Z,11.6154
2023-05-14T02:03:02.359Z,12.4615
2023-05-14T02:04:04.104Z,15.2308
2023-05-14T02:05:06.913Z,17.2308
2023-05-14T02:07:27.112Z,3.2500
2023-05-14T02:08:28.754Z,12.0000
2023-05-14T02:09:30.486Z,10.0769
2023-05-14T02:12:26.325Z,3.6667
2023-05-14T02:13:28.043Z,15.4615
2023-05-14T02:14:29.773Z,21.3846
2023-05-14T02:15:31.531Z,19.0769
2023-05-14T02:16:33.257Z,18.8462
2023-05-14T02:17:35.037Z,12.7692
2023-05-14T02:18:36.759Z,8.0769
2023-05-14T02:19:38.480Z,7.3077
2023-05-14T02:20:40.188Z,6.3077
2023-05-14T02:21:41.939Z,5.0000
2023-05-14T02:22:43.655Z,10.1538
2023-05-14T02:23:45.387Z,16.1538
2023-05-14T02:24:47.132Z,17.3077
2023-05-14T02:25:48.855Z,6.9231
2023-05-14T02:26:50.621Z,10.2308
2023-05-14T02:27:52.355Z,5.0000
2023-05-14T02:28:54.072Z,6.7692
2023-05-14T02:29:55.805Z,9.4615
2023-05-14T02:34:11.282Z,7.1667
2023-05-14T02:35:13.001Z,26.5385
2023-05-14T02:36:14.761Z,28.2308
2023-05-14T02:37:16.468Z,30.7692
2023-05-14T02:38:18.259Z,23.3077
2023-05-14T02:39:19.947Z,18.1538
2023-05-14T02:40:21.871Z,22.2308
2023-05-14T02:41:23.418Z,20.5385
2023-05-14T02:42:25.173Z,14.9231
2023-05-14T02:43:26.898Z,8.5385
2023-05-14T02:44:28.651Z,10.3846
2023-05-14T02:45:30.393Z,10.2308
2023-05-14T02:46:32.314Z,6.7692
2023-05-14T02:47:36.030Z,11.4615
2023-05-14T02:48:35.571Z,13.6154
2023-05-14T02:49:37.328Z,8.5385
2023-05-14T02:50:39.064Z,7.7692
2023-05-14T02:51:40.774Z,10.9231
2023-05-14T02:52:42.503Z,7.3077
2023-05-14T02:53:44.239Z,9.0769
2023-05-14T02:54:46.004Z,9.3077
2023-05-14T02:55:47.758Z,6.0000
2023-05-14T02:56:49.443Z,8.5385
2023-05-14T02:57:51.185Z,10.9231
2023-05-14T02:58:52.922Z,9.0000
2023-05-14T02:59:54.670Z,12.3846
2023-05-14T03:00:56.486Z,8.3077
2023-05-14T03:01:58.199Z,8.6923
2023-05-14T03:02:59.876Z,4.1538
2023-05-14T03:04:01.592Z,6.5385
2023-05-14T03:05:03.323Z,3.9231
2023-05-14T03:06:05.085Z,5.5385
2023-05-14T03:07:06.818Z,7.2308
2023-05-14T03:08:08.529Z,8.7692
2023-05-14T03:09:10.269Z,11.6923
2023-05-14T03:10:11.993Z,9.3846
2023-05-14T03:11:13.763Z,6.0769
2023-05-14T03:12:15.486Z,5.4615
2023-05-14T03:13:17.221Z,6.5385
2023-05-14T03:14:18.972Z,9.3846
2023-05-14T03:15:20.672Z,2.8462
2023-05-14T03:16:22.442Z,8.2308
2023-05-14T03:17:24.217Z,7.8462
2023-05-14T03:18:25.969Z,3.4615
2023-05-14T03:19:27.619Z,4.8462
2023-05-14T03:20:29.331Z,14.0000
2023-05-14T03:21:31.072Z,15.1538
2023-05-14T03:22:32.829Z,5.1538
2023-05-14T03:23:34.585Z,13.9231
2023-05-14T03:24:36.301Z,11.9231
2023-05-14T03:25:38.027Z,13.4615
2023-05-14T03:26:39.756Z,10.0769
2023-05-14T03:27:41.514Z,11.7692
2023-05-14T03:28:43.259Z,6.8462
2023-05-14T03:29:44.958Z,8.7692
2023-05-14T03:30:46.764Z,2.8462
2023-05-14T03:31:48.445Z,3.9231
2023-05-14T03:32:50.235Z,11.9231
2023-05-14T03:33:51.934Z,11.1538
2023-05-14T03:34:53.645Z,14.2308
2023-05-14T03:35:55.385Z,10.0769
2023-05-14T03:36:57.133Z,12.1538
2023-05-14T03:37:58.877Z,10.5385
2023-05-14T03:39:00.620Z,7.0000
2023-05-14T03:40:02.358Z,7.3077
2023-05-14T03:41:04.060Z,17.3077
2023-05-14T03:42:05.796Z,4.4615
2023-05-14T03:43:07.543Z,6.2308
2023-05-14T03:44:09.294Z,14.8462
2023-05-14T03:45:11.037Z,10.2308
2023-05-14T03:46:12.740Z,11.6154
2023-05-14T03:47:14.472Z,11.1538
2023-05-14T03:48:16.298Z,12.0000
2023-05-14T03:49:17.983Z,13.6154
2023-05-14T03:50:19.697Z,15.3846
2023-05-14T03:51:21.434Z,6.1538
2023-05-14T03:52:23.151Z,9.1538
2023-05-14T03:53:24.885Z,8.1538
2023-05-14T03:54:26.638Z,7.1538
2023-05-14T03:55:28.375Z,11.0000
2023-05-14T03:56:30.095Z,10.5385
2023-05-14T03:57:31.847Z,11.4615
2023-05-14T03:58:33.586Z,18.7692
2023-05-14T03:59:35.315Z,12.3077
2023-05-14T04:00:37.032Z,13.7692
2023-05-14T04:01:38.791Z,15.3077
2023-05-14T04:02:40.561Z,15.1538
2023-05-14T04:03:42.368Z,14.6154
2023-05-14T04:04:44.000Z,10.0769
2023-05-14T04:05:45.725Z,10.1538
2023-05-14T04:06:47.455Z,11.5385
2023-05-14T04:07:49.221Z,8.6923
2023-05-14T04:08:50.908Z,14.1538
2023-05-14T04:09:52.662Z,17.6923
2023-05-14T04:10:54.424Z,14.5385
2023-05-14T04:11:56.125Z,13.3846
2023-05-14T04:12:57.876Z,8.7692
2023-05-14T04:13:59.577Z,7.7692
2023-05-14T04:15:01.330Z,5.6154
2023-05-14T04:16:03.060Z,9.0769
2023-05-14T04:17:04.814Z,10.6154
2023-05-14T04:18:06.629Z,14.3846
2023-05-14T04:19:08.322Z,18.4615
2023-05-14T04:20:09.991Z,14.8462
2023-05-14T04:21:11.727Z,16.0769
2023-05-14T04:22:13.465Z,14.0000
2023-05-14T04:23:15.214Z,18.1538
2023-05-14T04:24:16.950Z,16.0769
2023-05-14T04:25:18.667Z,15.6154
2023-05-14T04:26:20.430Z,11.6154
2023-05-14T04:27:22.138Z,6.3846
2023-05-14T04:28:23.895Z,16.0000
2023-05-14T04:29:25.634Z,15.5385
2023-05-14T04:30:27.382Z,8.3846
2023-05-14T04:31:29.130Z,8.3077
2023-05-14T04:32:30.818Z,10.3077
2023-05-14T04:33:32.569Z,8.9231
2023-05-14T04:34:34.296Z,11.2308
2023-05-14T04:35:36.067Z,11.5385
2023-05-14T04:36:37.751Z,8.6923
2023-05-14T04:37:39.472Z,7.3846
2023-05-14T04:38:41.226Z,14.9231
2023-05-14T04:39:42.963Z,11.4615
2023-05-14T04:40:44.698Z,9.9231
2023-05-14T04:41:46.429Z,9.0769
2023-05-14T04:42:48.169Z,13.6923
2023-05-14T04:43:49.892Z,8.5385
2023-05-14T04:44:51.599Z,16.9231
2023-05-14T04:45:53.363Z,13.7692
2023-05-14T04:46:55.096Z,18.9231
2023-05-14T04:47:56.859Z,21.7692
2023-05-14T04:48:58.574Z,20.3077
2023-05-14T04:50:00.396Z,12.6154
2023-05-14T04:51:02.025Z,19.1538
2023-05-14T04:52:03.767Z,18.3077
2023-05-14T04:53:05.508Z,20.5385
2023-05-14T04:54:07.238Z,18.1538
2023-05-14T04:55:08.960Z,18.6923
2023-05-14T04:56:10.696Z,19.6923
2023-05-14T04:57:12.425Z,19.7692
2023-05-14T04:58:14.139Z,19.4615
2023-05-14T04:59:15.872Z,18.7692
2023-05-14T05:00:17.610Z,19.6923
2023-05-14T05:01:19.420Z,21.1538
2023-05-14T05:02:21.092Z,19.0000
2023-05-14T05:03:22.967Z,19.6154
2023-05-14T05:04:24.540Z,22.5385
2023-05-14T05:05:26.288Z,25.2308
2023-05-14T05:06:28.050Z,26.3077
2023-05-14T05:07:29.781Z,25.3846
2023-05-14T05:08:31.501Z,22.9231
2023-05-14T05:09:33.217Z,28.6923
2023-05-14T05:10:34.998Z,22.0000
2023-05-14T05:11:36.706Z,21.0769
2023-05-14T05:12:38.466Z,16.9231
2023-05-14T05:13:40.157Z,19.5385
2023-05-14T05:14:41.889Z,21.1538
2023-05-14T05:15:43.659Z,23.8462
2023-05-14T05:16:45.382Z,20.0769
2023-05-14T05:17:47.180Z,18.0769
2023-05-14T05:18:48.879Z,17.2308
2023-05-14T05:19:50.582Z,14.4615
2023-05-14T05:20:52.297Z,21.0000
2023-05-14T05:21:54.053Z,21.4615
2023-05-14T05:22:55.791Z,19.3846
2023-05-14T05:23:57.514Z,20.3077
2023-05-14T05:24:59.240Z,18.8462
2023-05-14T05:26:00.989Z,22.3077
2023-05-14T05:27:02.742Z,20.6154
2023-05-14T05:28:04.460Z,22.4615
2023-05-14T05:29:06.213Z,13.5385
2023-05-14T05:30:07.917Z,24.0769
2023-05-14T05:31:09.662Z,21.8462
2023-05-14T05:32:11.393Z,19.0000
2023-05-14T05:33:13.131Z,25.9231
2023-05-14T05:34:14.863Z,26.7692
2023-05-14T05:35:16.581Z,26.4615
2023-05-14T05:36:18.320Z,16.6154
2023-05-14T05:37:20.049Z,19.7692
2023-05-14T05:38:21.799Z,30.8462
2023-05-14T05:39:23.546Z,26.4615
2023-05-14T05:40:25.661Z,23.4615
2023-05-14T05:41:26.972Z,23.6923
2023-05-14T05:42:28.721Z,28.8462
2023-05-14T05:43:30.437Z,25.3846
2023-05-14T05:44:32.197Z,25.9231
2023-05-14T05:45:33.922Z,27.8462
2023-05-14T05:46:35.675Z,27.4615
2023-05-14T05:47:37.468Z,24.9231
2023-05-14T05:48:39.109Z,26.5385
2023-05-14T05:49:40.870Z,28.8462
2023-05-14T05:50:42.591Z,24.0000
2023-05-14T05:51:44.326Z,30.6923
2023-05-14T05:52:46.036Z,30.2308
2023-05-14T05:53:47.842Z,28.0769
2023-05-14T05:54:49.524Z,26.6923
2023-05-14T05:55:51.237Z,25.6154
2023-05-14T05:56:52.980Z,25.0000
2023-05-14T05:57:54.714Z,24.0769
2023-05-14T05:58:56.470Z,28.6154
2023-05-14T05:59:58.196Z,22.8462
2023-05-14T06:00:59.913Z,25.0769
2023-05-14T06:02:01.667Z,28.3077
2023-05-14T06:03:03.416Z,28.8462
2023-05-14T06:04:05.115Z,27.0000
2023-05-14T06:05:06.874Z,32.1538
2023-05-14T06:06:08.622Z,31.9231
2023-05-14T06:07:10.292Z,32.4615
2023-05-14T06:08:12.046Z,32.6154
2023-05-14T06:09:13.764Z,31.0000
2023-05-14T06:10:15.537Z,29.5385
2023-05-14T06:11:17.282Z,33.4615
2023-05-14T06:12:18.967Z,33.9231
2023-05-14T06:13:20.707Z,28.1538
2023-05-14T06:14:22.432Z,37.6154
2023-05-14T06:15:24.199Z,33.1538
2023-05-14T06:16:25.931Z,39.3846
2023-05-14T06:17:27.733Z,32.0000
2023-05-14T06:18:29.411Z,26.3077
2023-05-14T06:19:31.097Z,29.9231
2023-05-14T06:20:32.856Z,34.6154
2023-05-14T06:21:34.586Z,33.1538
2023-05-14T06:22:36.329Z,35.9231
2023-05-14T06:23:38.044Z,35.3846
2023-05-14T06:24:39.767Z,31.7692
2023-05-14T06:25:41.487Z,31.6923
2023-05-14T06:26:43.231Z,31.4615
2023-05-14T06:27:44.974Z,37.0769
2023-05-14T06:28:46.697Z,28.6154
2023-05-14T06:29:48.416Z,36.2308
2023-05-14T06:30:50.148Z,31.6923
2023-05-14T06:31:51.900Z,32.4615
2023-05-14T06:32:53.654Z,35.6154
2023-05-14T06:33:55.343Z,39.0769
2023-05-14T06:34:57.094Z,38.2308
2023-05-14T06:35:58.932Z,37.7692
2023-05-14T06:37:00.654Z,40.7692
2023-05-14T06:38:02.366Z,39.8462
2023-05-14T06:39:04.103Z,38.9231
2023-05-14T06:40:05.836Z,44.9231
2023-05-14T06:41:07.580Z,46.0769
2023-05-14T06:42:09.325Z,39.3846
2023-05-14T06:43:11.019Z,41.6154
2023-05-14T06:44:12.751Z,34.4615
2023-05-14T06:45:14.478Z,31.6923
2023-05-14T06:46:16.263Z,36.4615
2023-05-14T06:47:17.989Z,36.5385
2023-05-14T06:48:19.773Z,34.4615
2023-05-14T06:49:21.403Z,35.0000
2023-05-14T06:50:23.290Z,41.0769
2023-05-14T06:51:24.887Z,42.1538
2023-05-14T06:52:26.619Z,39.2308
2023-05-14T06:53:28.370Z,41.1538
2023-05-14T06:54:30.102Z,42.0769
2023-05-14T06:55:31.835Z,42.8462
2023-05-14T06:56:33.572Z,47.6154
2023-05-14T06:57:35.303Z,45.8462
2023-05-14T06:58:37.022Z,44.8462
2023-05-14T06:59:38.732Z,47.0769
2023-05-14T07:00:40.500Z,47.6154
2023-05-14T07:01:42.250Z,41.0000
2023-05-14T07:02:44.011Z,42.0769
2023-05-14T07:03:45.702Z,47.0000
2023-05-14T07:04:47.452Z,52.0000
2023-05-14T07:05:49.134Z,47.3077
2023-05-14T07:06:50.870Z,46.2308
2023-05-14T07:07:52.605Z,46.6923
2023-05-14T07:08:54.366Z,45.1538
2023-05-14T07:09:56.100Z,49.3077
2023-05-14T07:10:57.819Z,46.3077
2023-05-14T07:11:59.538Z,49.3077
2023-05-14T07:13:01.277Z,51.3077
2023-05-14T07:14:02.999Z,49.0000
2023-05-14T07:15:04.759Z,59.8462
2023-05-14T07:16:06.476Z,48.5385
2023-05-14T07:17:08.260Z,49.2308
2023-05-14T07:18:09.934Z,46.5385
2023-05-14T07:19:11.725Z,50.5385
2023-05-14T07:20:13.412Z,60.3077
2023-05-14T07:21:15.128Z,54.3846
2023-05-14T07:22:16.876Z,54.4615
2023-05-14T07:23:19.774Z,54.5385
2023-05-14T07:24:20.316Z,56.5385
2023-05-14T07:25:22.062Z,60.8462
2023-05-14T07:26:23.799Z,55.8462
2023-05-14T07:27:25.531Z,58.7692
2023-05-14T07:28:27.243Z,52.0000
2023-05-14T07:29:28.986Z,58.3846
2023-05-14T07:30:30.718Z,58.9231
2023-05-14T07:31:32.485Z,62.2308
2023-05-14T07:32:34.191Z,58.2308
2023-05-14T07:33:35.923Z,56.0000
2023-05-14T07:34:37.644Z,55.3077
2023-05-14T07:35:39.378Z,59.3846
2023-05-14T07:36:41.083Z,59.0000
2023-05-14T07:37:42.845Z,58.7692
2023-05-14T07:38:44.550Z,60.9231
2023-05-14T07:39:46.293Z,64.2308
2023-05-14T07:40:48.028Z,69.3077
2023-05-14T07:41:49.732Z,62.9231
2023-05-14T07:42:51.472Z,64.3077
2023-05-14T07:43:53.216Z,63.7692
2023-05-14T07:44:54.950Z,65.0000
2023-05-14T07:45:56.688Z,61.7692
2023-05-14T07:46:58.442Z,68.1538
2023-05-14T07:48:00.317Z,67.6923
2023-05-14T07:49:01.856Z,66.3077
2023-05-14T07:50:03.596Z,68.6154
2023-05-14T07:51:05.352Z,69.3846
2023-05-14T07:52:07.067Z,69.6154
2023-05-14T07:53:08.776Z,73.3846
2023-05-14T07:54:10.512Z,72.3077
2023-05-14T07:55:12.247Z,71.8462
2023-05-14T07:56:14.006Z,74.0000
2023-05-14T07:57:15.730Z,77.0000
2023-05-14T07:58:17.435Z,82.9231
2023-05-14T07:59:19.178Z,79.1538
2023-05-14T08:00:20.970Z,76.2308
2023-05-14T08:01:22.657Z,80.5385
2023-05-14T08:02:24.505Z,80.8462
2023-05-14T08:03:26.205Z,79.2308
2023-05-14T08:04:27.895Z,75.7692
2023-05-14T08:05:29.583Z,78.9231
2023-05-14T08:06:31.289Z,79.0000
2023-05-14T08:07:33.038Z,77.6923
2023-05-14T08:08:34.773Z,80.4615
2023-05-14T08:09:36.481Z,79.6154
2023-05-14T08:10:38.235Z,76.3077
2023-05-14T08:11:39.961Z,84.3846
2023-05-14T08:12:41.676Z,81.1538
2023-05-14T08:13:43.434Z,80.2308
2023-05-14T08:14:45.138Z,77.0000
2023-05-14T08:15:46.884Z,78.8462
2023-05-14T08:16:48.670Z,80.8462
2023-05-14T08:17:50.371Z,86.7692
2023-05-14T08:18:52.078Z,78.3846
2023-05-14T08:19:53.773Z,77.6923
2023-05-14T08:20:55.535Z,77.3077
2023-05-14T08:21:57.256Z,80.6923
2023-05-14T08:22:58.996Z,81.2308
2023-05-14T08:24:00.707Z,84.7692
2023-05-14T08:25:02.462Z,81.5385
2023-05-14T08:26:04.200Z,81.7692
2023-05-14T08:27:05.889Z,76.3077
2023-05-14T08:28:07.653Z,70.1538
2023-05-14T08:29:10.765Z,78.3846
2023-05-14T08:30:11.105Z,76.4615
2023-05-14T08:31:12.861Z,78.9231
2023-05-14T08:32:22.766Z,76.9231
2023-05-14T08:33:16.274Z,82.0769
2023-05-14T08:34:18.029Z,82.6923
2023-05-14T08:35:19.763Z,75.9231
2023-05-14T08:36:21.499Z,82.0000
2023-05-14T08:37:23.208Z,81.0000
2023-05-14T08:38:24.927Z,79.8462
2023-05-14T08:39:26.654Z,78.9231
2023-05-14T08:40:28.414Z,78.6923
2023-05-14T08:41:30.136Z,83.5385
2023-05-14T08:42:31.848Z,82.6154
2023-05-14T08:43:33.573Z,81.3077
2023-05-14T08:44:35.353Z,78.5385
2023-05-14T08:45:37.054Z,71.7692
2023-05-14T08:46:38.793Z,79.4615
2023-05-14T08:47:40.547Z,85.4615
2023-05-14T08:48:42.241Z,82.5385
2023-05-14T08:49:43.960Z,82.7692
2023-05-14T08:50:45.709Z,80.2308
2023-05-14T08:51:47.447Z,87.3077
2023-05-14T08:52:49.160Z,82.8462
2023-05-14T08:53:50.875Z,84.8462
2023-05-14T08:54:52.611Z,80.8462
2023-05-14T08:55:54.332Z,80.3846
2023-05-14T08:56:56.079Z,73.1538
2023-05-14T08:57:57.810Z,74.3077
2023-05-14T08:58:59.505Z,75.0769
2023-05-14T09:00:01.290Z,84.0769
2023-05-14T09:01:02.968Z,85.6923
2023-05-14T09:02:04.810Z,82.4615
2023-05-14T09:03:06.487Z,75.8462
2023-05-14T09:04:08.157Z,78.5385
2023-05-14T09:05:09.898Z,84.3846
2023-05-14T09:06:11.598Z,74.2308
2023-05-14T09:07:13.351Z,76.6154
2023-05-14T09:08:15.073Z,76.1538
2023-05-14T09:09:16.819Z,79.9231
2023-05-14T09:10:18.526Z,78.9231
2023-05-14T09:11:20.241Z,74.8462
2023-05-14T09:12:22.011Z,74.0769
2023-05-14T09:13:24.140Z,76.6154
2023-05-14T09:14:25.449Z,77.8462
2023-05-14T09:15:27.161Z,78.9231
2023-05-14T09:16:28.941Z,79.6154
2023-05-14T09:17:30.671Z,79.9231
2023-05-14T09:18:32.397Z,82.7692
2023-05-14T09:19:34.110Z,79.7692
2023-05-14T09:20:35.805Z,80.5385
2023-05-14T09:21:37.518Z,84.2308
2023-05-14T09:22:39.264Z,84.8462
2023-05-14T09:23:41.004Z,86.2308
2023-05-14T09:24:42.730Z,89.7692
2023-05-14T09:25:44.460Z,89.6923
2023-05-14T09:26:46.188Z,87.5385
2023-05-14T09:27:47.913Z,84.0769
2023-05-14T09:28:49.635Z,83.4615
2023-05-14T09:29:51.341Z,80.4615
2023-05-14T09:30:53.082Z,87.1538
2023-05-14T09:31:54.898Z,89.8462
2023-05-14T09:32:56.615Z,89.9231
2023-05-14T09:33:58.292Z,90.0000
2023-05-14T09:34:59.992Z,84.8462
2023-05-14T09:36:01.723Z,82.3846
2023-05-14T09:37:03.475Z,80.9231
2023-05-14T09:38:05.190Z,81.4615
2023-05-14T09:39:06.921Z,80.1538
2023-05-14T09:40:08.637Z,80.4615
2023-05-14T09:41:10.358Z,83.4615
2023-05-14T09:42:12.099Z,75.5385
2023-05-14T09:43:13.820Z,70.6154
2023-05-14T09:44:15.545Z,70.1538
2023-05-14T09:45:17.271Z,76.0000
2023-05-14T09:46:18.990Z,80.8462
2023-05-14T09:47:20.799Z,85.2308
2023-05-14T09:48:22.579Z,81.3077
2023-05-14T09:49:24.180Z,72.7692
2023-05-14T09:50:26.153Z,75.4615
2023-05-14T09:51:27.640Z,78.0000
2023-05-14T09:52:29.360Z,79.0769
2023-05-14T09:53:31.087Z,78.8462
2023-05-14T09:54:32.815Z,73.3846
2023-05-14T09:55:34.519Z,74.6923
2023-05-14T09:56:36.286Z,81.7692
2023-05-14T09:57:38.002Z,87.4615
2023-05-14T09:58:39.709Z,80.5385
2023-05-14T09:59:41.431Z,83.2308
2023-05-14T10:00:43.189Z,79.5385
2023-05-14T10:01:44.983Z,83.3846
2023-05-14T10:02:46.699Z,83.8462
2023-05-14T10:03:48.369Z,85.4615
2023-05-14T10:04:50.325Z,93.9231
2023-05-14T10:05:51.820Z,97.0000
2023-05-14T10:06:53.546Z,89.3846
2023-05-14T10:07:55.289Z,94.3846
2023-05-14T10:08:57.003Z,102.3846
2023-05-14T10:09:59.546Z,98.7692
2023-05-14T10:11:00.472Z,100.2308
2023-05-14T10:12:02.214Z,96.2308
2023-05-14T10:13:03.899Z,100.3077
2023-05-14T10:14:05.639Z,98.6154
2023-05-14T10:15:07.386Z,100.0000
2023-05-14T10:16:09.121Z,96.2308
2023-05-14T10:17:10.950Z,91.1538
2023-05-14T10:18:12.607Z,95.2308
2023-05-14T10:19:14.305Z,99.1538
2023-05-14T10:20:16.054Z,100.3077
2023-05-14T10:21:17.764Z,99.2308
2023-05-14T10:22:19.494Z,97.1538
2023-05-14T10:23:21.226Z,91.6923
2023-05-14T10:24:22.927Z,92.4615
2023-05-14T10:25:24.669Z,87.0769
2023-05-14T10:26:26.431Z,86.3846
2023-05-14T10:27:28.140Z,93.6154
2023-05-14T10:28:29.861Z,87.3846
2023-05-14T10:29:31.571Z,86.0000
2023-05-14T10:30:33.304Z,91.3077
2023-05-14T10:31:35.094Z,86.5385
2023-05-14T10:32:36.829Z,87.0769
2023-05-14T10:33:38.513Z,85.7692
2023-05-14T10:34:40.235Z,89.4615
2023-05-14T10:35:41.943Z,91.6154
2023-05-14T10:36:43.673Z,91.0000
2023-05-14T10:37:45.429Z,94.2308
2023-05-14T10:38:47.159Z,93.3077
2023-05-14T10:39:48.978Z,92.1538
2023-05-14T10:40:52.824Z,88.5385
2023-05-14T10:41:52.418Z,85.9231
2023-05-14T10:42:54.136Z,88.8462
2023-05-14T10:43:55.897Z,88.5385
2023-05-14T10:44:57.623Z,79.5385
2023-05-14T10:45:59.331Z,82.1538
2023-05-14T10:47:01.070Z,82.7692
2023-05-14T10:48:02.788Z,85.6923
2023-05-14T10:49:04.536Z,84.2308
2023-05-14T10:50:06.266Z,84.5385
2023-05-14T10:51:08.043Z,81.0000
2023-05-14T10:52:09.691Z,81.3077
2023-05-14T10:53:11.422Z,81.1538
2023-05-14T10:54:13.168Z,80.7692
2023-05-14T10:55:14.926Z,78.3077
2023-05-14T10:56:16.632Z,73.3077
2023-05-14T10:57:18.370Z,82.6923
2023-05-14T10:58:20.068Z,85.4615
2023-05-14T10:59:21.820Z,89.5385
2023-05-14T11:00:23.746Z,86.6154
2023-05-14T11:01:25.328Z,84.3846
2023-05-14T11:02:27.043Z,88.6154
2023-05-14T11:03:28.765Z,80.8462
2023-05-14T11:04:30.456Z,82.3077
2023-05-14T11:05:32.203Z,84.0000
2023-05-14T11:06:33.930Z,81.0000
2023-05-14T11:07:35.674Z,81.0000
2023-05-14T11:08:37.395Z,80.9231
2023-05-14T11:09:39.106Z,82.4615
2023-05-14T11:10:40.826Z,84.1538
2023-05-14T11:11:42.604Z,89.3846
2023-05-14T11:12:44.323Z,81.8462
2023-05-14T11:13:46.051Z,89.0000
2023-05-14T11:14:47.783Z,86.6154
2023-05-14T11:15:49.503Z,84.4615
2023-05-14T11:16:51.233Z,82.3077
2023-05-14T11:17:52.954Z,83.3077
2023-05-14T11:18:54.739Z,84.3077
2023-05-14T11:19:56.412Z,82.0000
2023-05-14T11:20:58.146Z,84.0769
2023-05-14T11:21:59.850Z,92.0000
2023-05-14T11:23:01.577Z,92.7692
2023-05-14T11:24:03.303Z,94.3077
2023-05-14T11:25:05.052Z,93.9231
2023-05-14T11:26:06.841Z,93.0769
2023-05-14T11:27:08.497Z,99.0000
2023-05-14T11:28:10.248Z,91.9231
2023-05-14T11:29:11.961Z,89.6923
2023-05-14T11:30:13.689Z,84.3846
2023-05-14T11:31:15.444Z,87.2308
2023-05-14T11:32:17.169Z,86.8462
2023-05-14T11:33:18.954Z,88.1538
2023-05-14T11:34:20.627Z,93.3846
2023-05-14T11:35:22.355Z,91.3846
2023-05-14T11:36:24.061Z,89.5385
2023-05-14T11:37:25.793Z,88.3846
2023-05-14T11:38:27.527Z,96.4615
2023-05-14T11:39:29.257Z,100.0769
2023-05-14T11:40:31.002Z,90.0000
2023-05-14T11:41:32.705Z,88.9231
2023-05-14T11:42:34.448Z,94.1538
2023-05-14T11:43:36.166Z,94.5385
2023-05-14T11:44:37.921Z,99.3077
2023-05-14T11:45:39.693Z,96.2308
2023-05-14T11:46:41.413Z,91.3846
2023-05-14T11:47:43.116Z,90.3846
2023-05-14T11:48:44.809Z,88.4615
2023-05-14T11:49:46.556Z,92.3077
2023-05-14T11:50:48.284Z,84.4615
2023-05-14T11:51:50.013Z,94.0769
2023-05-14T11:52:51.723Z,104.3846
2023-05-14T11:53:53.445Z,95.1538
2023-05-14T11:54:55.193Z,89.3846
2023-05-14T11:55:56.923Z,92.8462
2023-05-14T11:56:58.625Z,91.3846
2023-05-14T11:58:00.365Z,83.3077
2023-05-14T11:59:02.091Z,87.3077
2023-05-14T12:00:03.820Z,89.4615
2023-05-14T12:01:05.582Z,88.7692
2023-05-14T12:02:07.337Z,89.9231
2023-05-14T12:03:09.065Z,89.7692
2023-05-14T12:04:10.843Z,87.7692
2023-05-14T12:05:12.570Z,91.0769
2023-05-14T12:06:14.213Z,87.7692
2023-05-14T12:07:15.952Z,88.1538
2023-05-14T12:08:17.660Z,97.9231
2023-05-14T12:09:19.380Z,93.9231
2023-05-14T12:10:21.121Z,87.3077
2023-05-14T12:11:22.863Z,94.1538
2023-05-14T12:12:24.600Z,88.2308
2023-05-14T12:13:26.325Z,88.9231
2023-05-14T12:14:28.037Z,90.3077
2023-05-14T12:15:29.775Z,82.0769
2023-05-14T12:16:31.588Z,86.4615
2023-05-14T12:17:33.261Z,84.5385
2023-05-14T12:18:35.060Z,88.5385
2023-05-14T12:19:36.697Z,93.2308
2023-05-14T12:20:38.430Z,90.6923
2023-05-14T12:21:40.165Z,97.5385
2023-05-14T12:22:41.864Z,89.2308
2023-05-14T12:23:43.605Z,87.6154
2023-05-14T12:24:45.347Z,84.3846
2023-05-14T12:25:47.073Z,76.9231
2023-05-14T12:26:48.814Z,83.5385
2023-05-14T12:27:50.515Z,73.2308
2023-05-14T12:28:52.256Z,78.0000
2023-05-14T12:29:53.997Z,80.8462
2023-05-14T12:30:55.747Z,78.0000
2023-05-14T12:31:57.546Z,81.0769
2023-05-14T12:32:59.250Z,84.9231
2023-05-14T12:34:00.908Z,81.6923
2023-05-14T12:35:02.632Z,82.0000